La Valle, Wisconsin
Current Conditions -  °F | °C
As of 9:35 AM on Thursday 23 Oct 2014 (Local Time) from KC35 Reporting Station
Drizzle Drizzle  
Wind Chill: 42°   Ceiling: 2800
Heat Index: 46°   Visibility: 10mi
Dew Point: 38°   Wind: 7mph
Humidity: 75%   Direction: 180°S
Pressure: 30.11"   Gusts: NA
Location:  43.58°N, 90.13°W
Report Text: KC35 231435Z AUTO 18006KT 10SM DZ BKN028 OVC040 08/03 A3011 RMK AO2 T00750034
Loading
Personal Weather Stations






























Interactive Weather Map
Tropical Storm Tracking
New forecast layout! Learn more

10-Day Weather Forecast

Advertisements
Track Severe Weather on mobile